createdAt,value
2018-07-02T00:32:15.700Z,-82.00
2018-07-02T00:33:09.266Z,-85.00
2018-07-02T00:34:54.438Z,-85.00
2018-07-02T00:36:59.501Z,-82.00
2018-07-02T00:38:29.471Z,-84.00
2018-07-02T00:39:14.572Z,-84.00
2018-07-02T00:50:23.075Z,-82.00
2018-07-02T00:51:34.966Z,-84.00
2018-07-02T00:53:25.456Z,-84.00
2018-07-02T00:53:49.658Z,-85.00
2018-07-02T01:27:04.160Z,-82.00
2018-07-02T01:27:57.503Z,-85.00
2018-07-02T01:29:00.669Z,-84.00
2018-07-02T01:32:24.696Z,-82.00
2018-07-02T01:33:14.954Z,-84.00
2018-07-02T01:34:14.998Z,-85.00
2018-07-02T01:36:40.250Z,-85.00
2018-07-02T01:36:48.805Z,-85.00
2018-07-02T01:37:48.764Z,-85.00
2018-07-02T01:39:56.219Z,-85.00
2018-07-02T01:44:50.363Z,-85.00
2018-07-02T01:45:01.340Z,-85.00
2018-07-02T01:53:22.452Z,-85.00
2018-07-02T01:54:21.435Z,-84.00
2018-07-02T01:55:30.376Z,-85.00
2018-07-02T01:56:35.105Z,-84.00
2018-07-02T01:58:27.249Z,-85.00
2018-07-02T01:59:20.850Z,-84.00
2018-07-02T02:01:33.174Z,-84.00
2018-07-02T02:02:48.062Z,-85.00
2018-07-02T02:03:10.861Z,-84.00
2018-07-02T02:04:17.106Z,-85.00
2018-07-02T02:05:20.652Z,-85.00
2018-07-02T02:06:15.036Z,-85.00
2018-07-02T02:07:12.655Z,-85.00
2018-07-02T02:09:20.651Z,-82.00
2018-07-02T02:10:18.406Z,-84.00
2018-07-02T02:11:24.588Z,-84.00
2018-07-02T02:12:22.670Z,-84.00
2018-07-02T02:13:29.278Z,-85.00
2018-07-02T02:14:20.869Z,-85.00
2018-07-02T02:15:40.112Z,-85.00
2018-07-02T02:16:22.481Z,-84.00
2018-07-02T02:17:36.848Z,-85.00
2018-07-02T02:18:24.168Z,-84.00
2018-07-02T02:19:24.893Z,-85.00
2018-07-02T02:20:28.417Z,-84.00
2018-07-02T02:21:29.914Z,-85.00
2018-07-02T02:22:34.201Z,-85.00
2018-07-02T02:23:30.352Z,-84.00
2018-07-02T02:24:30.024Z,-85.00
2018-07-02T02:25:28.675Z,-85.00
2018-07-02T02:26:34.849Z,-85.00
2018-07-02T02:27:32.399Z,-85.00
2018-07-02T02:30:22.533Z,-85.00
2018-07-02T02:32:06.592Z,-85.00
2018-07-02T02:32:56.079Z,-85.00
2018-07-02T02:33:54.613Z,-84.00
2018-07-02T02:50:15.016Z,-85.00
2018-07-02T02:55:43.964Z,-83.00
2018-07-02T02:56:38.975Z,-85.00
2018-07-02T02:57:42.234Z,-84.00
2018-07-02T02:58:44.826Z,-84.00
2018-07-02T02:59:38.385Z,-85.00
2018-07-02T03:00:40.177Z,-85.00
2018-07-02T03:01:40.010Z,-84.00
2018-07-02T03:02:40.798Z,-84.00
2018-07-02T03:03:58.918Z,-84.00
2018-07-02T03:04:51.167Z,-84.00
2018-07-02T03:05:47.737Z,-84.00
2018-07-02T03:06:43.503Z,-82.00
2018-07-02T03:07:45.286Z,-83.00
2018-07-02T03:08:46.062Z,-83.00
2018-07-02T03:09:45.901Z,-86.00
2018-07-02T03:10:46.605Z,-83.00
2018-07-02T03:11:47.398Z,-82.00
2018-07-02T03:12:48.179Z,-83.00
2018-07-02T03:13:52.381Z,-83.00
2018-07-02T04:09:22.800Z,-82.00
2018-07-02T04:10:27.219Z,-84.00
2018-07-02T04:11:12.483Z,-84.00
2018-07-02T04:25:46.006Z,-82.00
2018-07-02T04:26:08.714Z,-82.00
2018-07-02T04:26:42.231Z,-82.00
2018-07-02T04:27:40.010Z,-82.00
2018-07-02T04:33:17.671Z,-82.00
2018-07-02T04:34:23.409Z,-83.00
2018-07-02T04:35:18.215Z,-84.00
2018-07-02T04:36:18.989Z,-84.00
2018-07-02T04:37:19.803Z,-85.00
2018-07-02T04:38:33.555Z,-85.00
2018-07-02T04:44:32.131Z,-82.00
2018-07-02T04:45:24.782Z,-84.00
2018-07-02T04:47:32.919Z,-82.00
2018-07-02T04:55:22.777Z,-82.00
2018-07-02T04:56:17.425Z,-82.00
2018-07-02T04:57:55.996Z,-82.00
2018-07-02T04:58:57.306Z,-82.00
2018-07-02T04:59:54.478Z,-81.00
2018-07-02T05:00:52.850Z,-82.00
2018-07-02T05:01:57.053Z,-81.00
2018-07-02T05:02:54.420Z,-82.00
2018-07-02T05:04:04.624Z,-82.00
2018-07-02T05:04:58.279Z,-84.00
2018-07-02T05:06:34.605Z,-84.00
2018-07-02T05:06:57.677Z,-84.00
2018-07-02T05:08:06.837Z,-84.00
2018-07-02T05:09:04.870Z,-84.00
2018-07-02T05:09:59.739Z,-85.00
2018-07-02T05:12:10.550Z,-83.00
2018-07-02T05:13:11.349Z,-84.00
2018-07-02T05:14:14.921Z,-84.00
2018-07-02T05:15:12.687Z,-84.00
2018-07-02T05:16:16.052Z,-85.00
2018-07-02T05:17:13.295Z,-84.00
2018-07-02T05:18:15.087Z,-85.00
2018-07-02T05:19:18.014Z,-84.00
2018-07-02T05:20:17.888Z,-84.00
2018-07-02T05:21:16.472Z,-85.00
2018-07-02T05:22:24.227Z,-85.00
2018-07-02T05:23:20.314Z,-84.00
2018-07-02T05:24:18.885Z,-84.00
2018-07-02T05:25:20.664Z,-84.00
2018-07-02T05:26:21.461Z,-84.00
2018-07-02T05:27:22.288Z,-85.00
2018-07-02T05:28:22.104Z,-85.00
2018-07-02T05:29:25.898Z,-84.00
2018-07-02T05:30:40.991Z,-84.00
2018-07-02T05:32:02.022Z,-84.00
2018-07-02T05:32:25.267Z,-85.00
2018-07-02T06:07:30.657Z,-82.00
2018-07-02T06:08:31.429Z,-84.00
2018-07-02T06:09:32.242Z,-84.00
2018-07-02T06:10:31.965Z,-85.00
2018-07-02T06:11:33.773Z,-85.00
2018-07-02T06:12:34.549Z,-85.00
2018-07-02T06:25:03.764Z,-82.00
2018-07-02T06:26:39.766Z,-85.00
2018-07-02T06:27:40.571Z,-86.00
2018-07-02T06:28:59.925Z,-85.00
2018-07-02T06:30:04.938Z,-85.00
2018-07-02T06:31:05.287Z,-85.00
2018-07-02T06:32:05.789Z,-83.00
2018-07-02T07:09:47.106Z,-83.00
2018-07-02T07:10:46.905Z,-84.00
2018-07-02T07:20:39.155Z,-84.00
2018-07-02T07:21:32.040Z,-85.00
2018-07-02T07:22:32.891Z,-83.00
2018-07-02T07:23:33.765Z,-83.00
2018-07-02T07:24:34.476Z,-83.00
2018-07-02T07:25:36.409Z,-83.00
2018-07-02T07:26:43.807Z,-83.00
2018-07-02T07:27:37.177Z,-84.00
2018-07-02T07:28:38.992Z,-83.00
2018-07-02T07:29:38.899Z,-84.00
2018-07-02T07:30:39.633Z,-83.00
2018-07-02T07:31:41.415Z,-84.00
2018-07-02T07:32:42.369Z,-84.00
2018-07-02T07:33:43.108Z,-84.00
2018-07-02T07:34:43.901Z,-83.00
2018-07-02T07:35:44.714Z,-84.00
2018-07-02T07:36:45.481Z,-82.00
2018-07-02T07:37:46.253Z,-83.00
2018-07-02T07:38:47.025Z,-82.00
2018-07-02T07:39:47.794Z,-83.00
2018-07-02T07:40:48.596Z,-82.00
2018-07-02T07:41:49.369Z,-83.00
2018-07-02T07:42:50.142Z,-82.00
2018-07-02T07:43:50.930Z,-82.00
2018-07-02T07:44:51.730Z,-83.00
2018-07-02T07:45:51.501Z,-82.00
2018-07-02T07:46:53.272Z,-83.00
2018-07-02T07:47:54.042Z,-80.00
2018-07-02T07:48:54.816Z,-80.00
2018-07-02T07:49:55.594Z,-80.00
2018-07-02T07:50:56.385Z,-79.00
2018-07-02T07:51:57.159Z,-84.00
2018-07-02T07:52:57.927Z,-82.00
2018-07-02T07:53:58.701Z,-83.00
2018-07-02T07:54:59.478Z,-83.00
2018-07-02T07:56:00.278Z,-84.00
2018-07-02T07:57:01.038Z,-84.00
2018-07-02T07:58:01.810Z,-83.00
2018-07-02T07:59:02.582Z,-84.00
2018-07-02T08:00:03.356Z,-83.00
2018-07-02T08:01:04.157Z,-84.00
2018-07-02T08:02:04.926Z,-85.00
2018-07-02T08:03:05.697Z,-84.00
2018-07-02T08:04:06.467Z,-84.00
2018-07-02T08:05:07.297Z,-83.00
2018-07-02T08:06:07.039Z,-83.00
2018-07-02T08:07:08.813Z,-83.00
2018-07-02T08:08:09.583Z,-84.00
2018-07-02T08:09:10.359Z,-84.00
2018-07-02T08:10:11.144Z,-84.00
2018-07-02T08:11:11.931Z,-83.00
2018-07-02T08:12:12.704Z,-83.00
2018-07-02T08:13:13.477Z,-83.00
2018-07-02T08:14:14.249Z,-84.00
2018-07-02T08:15:15.025Z,-84.00
2018-07-02T08:16:15.825Z,-86.00
2018-07-02T08:17:16.590Z,-84.00
2018-07-02T08:18:20.159Z,-84.00
2018-07-02T08:19:18.039Z,-86.00
2018-07-02T08:20:17.706Z,-84.00
2018-07-02T08:21:19.498Z,-85.00
2018-07-02T08:22:20.273Z,-84.00
2018-07-02T08:23:21.043Z,-85.00
2018-07-02T08:24:21.816Z,-84.00
2018-07-02T08:25:22.591Z,-84.00
2018-07-02T08:26:23.389Z,-85.00
2018-07-02T08:27:24.226Z,-85.00
2018-07-02T08:28:23.933Z,-85.00
2018-07-02T08:29:25.707Z,-86.00
2018-07-02T08:30:26.480Z,-84.00
2018-07-02T08:31:27.276Z,-85.00
2018-07-02T08:32:28.053Z,-85.00
2018-07-02T08:33:28.825Z,-85.00
2018-07-02T08:34:29.594Z,-85.00
2018-07-02T08:35:30.368Z,-83.00
2018-07-02T08:36:31.174Z,-86.00
2018-07-02T08:37:31.948Z,-85.00
2018-07-02T08:38:32.714Z,-85.00
2018-07-02T08:39:33.486Z,-84.00
2018-07-02T08:40:34.261Z,-86.00
2018-07-02T08:41:35.062Z,-85.00
2018-07-02T08:42:34.836Z,-84.00
2018-07-02T08:43:36.605Z,-84.00
2018-07-02T08:44:37.372Z,-84.00
2018-07-02T08:45:38.144Z,-85.00
2018-07-02T08:46:38.961Z,-86.00
2018-07-02T08:47:39.712Z,-87.00
2018-07-02T08:48:40.485Z,-85.00
2018-07-02T08:49:41.261Z,-85.00
2018-07-02T08:50:44.455Z,-83.00
2018-07-02T08:51:44.716Z,-83.00
2018-07-02T08:52:43.550Z,-83.00
2018-07-02T08:53:43.254Z,-83.00
2018-07-02T08:54:47.195Z,-84.00
2018-07-02T08:55:44.833Z,-84.00
2018-07-02T08:56:46.608Z,-84.00
2018-07-02T08:57:49.562Z,-83.00
2018-07-02T08:58:47.173Z,-83.00
2018-07-02T09:00:02.515Z,-83.00
2018-07-02T09:00:48.759Z,-83.00
2018-07-02T09:01:50.524Z,-83.00
2018-07-02T09:02:51.298Z,-84.00
2018-07-02T09:03:52.081Z,-84.00
2018-07-02T09:04:52.870Z,-83.00
2018-07-02T09:08:41.380Z,-82.00
2018-07-02T09:09:39.156Z,-83.00
2018-07-02T09:10:39.925Z,-85.00
2018-07-02T09:11:40.692Z,-86.00
2018-07-02T09:12:41.490Z,-85.00
2018-07-02T09:13:44.428Z,-84.00
2018-07-02T09:15:42.600Z,-85.00
2018-07-02T09:19:00.300Z,-85.00
2018-07-02T09:19:56.505Z,-87.00
2018-07-02T09:20:54.420Z,-85.00
2018-07-02T09:21:56.192Z,-85.00
2018-07-02T09:22:56.983Z,-84.00
2018-07-02T09:24:00.183Z,-85.00
2018-07-02T09:24:57.544Z,-85.00
2018-07-02T09:25:59.323Z,-85.00
2018-07-02T09:27:06.097Z,-85.00
2018-07-02T09:28:00.881Z,-85.00
2018-07-02T09:29:01.663Z,-86.00
2018-07-02T09:30:02.492Z,-86.00
2018-07-02T09:31:04.411Z,-86.00
2018-07-02T09:32:03.009Z,-85.00
2018-07-02T09:33:04.783Z,-86.00
2018-07-02T09:34:05.593Z,-84.00
2018-07-02T09:35:06.358Z,-85.00
2018-07-02T09:36:13.164Z,-85.00
2018-07-02T09:37:26.043Z,-85.00
2018-07-02T09:38:07.748Z,-85.00
2018-07-02T09:39:09.588Z,-86.00
2018-07-02T09:40:53.540Z,-83.00
2018-07-02T09:41:56.414Z,-82.00
2018-07-02T09:42:59.790Z,-82.00
2018-07-02T09:43:43.154Z,-82.00
2018-07-02T09:44:52.428Z,-84.00
2018-07-02T09:45:50.082Z,-83.00
2018-07-02T09:47:36.520Z,-83.00
2018-07-02T09:47:46.223Z,-83.00
2018-07-02T09:50:29.118Z,-94.00
2018-07-02T12:14:33.665Z,-92.00
2018-07-02T12:16:05.808Z,-93.00
2018-07-02T12:16:36.396Z,-89.00
2018-07-02T12:17:38.748Z,-93.00
2018-07-02T12:47:12.282Z,-91.00
2018-07-02T12:48:23.397Z,-92.00
